This demonstration page uses our WeatherBlox Daily Observations layout. Learn more.

38.88101, -77.10428

Hourly Observations for October 3, 2017

Temp ( °F °C ) Dew Point ( °F °C ) Humidity (%) Winds ( mph kmh ) Pressure ( in mb ) Visibility ( mi km ) Precip ( " mm )
1:52 am 01:52 Partly Cloudy 61 16.1 55 12.8 81 81 Calm 30.5 1033 10 16.0934 0 0
2:52 am 02:52 Mostly Clear 58 14.4 54 12.2 87 87 NNW 3 6 30.5 1033 10 16.0934 0 0
3:52 am 03:52 Mostly Clear 58 14.4 54 12.2 87 87 ENE 6 9 30.5 1033 10 16.0934 0 0
4:52 am 04:52 Mostly Clear 56 13.3 53 11.7 90 90 NNE 6 9 30.5 1033 10 16.0934 0 0
5:52 am 05:52 Mostly Clear 57 13.9 53 11.7 87 87 NNE 5 7 30.51 1033 10 16.0934 0 0
6:52 am 06:52 Mostly Clear 57 13.9 54 12.2 90 90 NE 7 11 30.54 1034 10 16.0934 0 0
7:52 am 07:52 Mostly Sunny 57 13.9 55 12.8 93 93 NE 8 13 30.57 1035 10 16.0934 0 0
8:17 am 08:17 Partly Cloudy 59 15 55 12.8 87 87 NE 7 11 30.59 1036 10 16.0934 0 0
8:52 am 08:52 Partly Cloudy 60 15.6 56 13.3 86 86 NE 5 7 30.58 1036 10 16.0934 0 0
9:52 am 09:52 Partly Cloudy 65 18.3 57 13.9 76 76 NE 6 9 30.6 1036 10 16.0934 0 0
10:52 am 10:52 Partly Cloudy 69 20.6 54 12.2 59 59 ENE 5 7 30.6 1036 10 16.0934 0 0
11:52 am 11:52 Partly Cloudy 71 21.7 52 11.1 51 51 ENE 5 7 30.6 1036 10 16.0934 0 0
12:52 pm 12:52 Mostly Sunny 72 22.2 51 10.6 48 48 ESE 5 7 30.59 1036 10 16.0934 0 0
1:52 pm 13:52 Mostly Sunny 73 22.8 49 9.4 43 43 SE 9 15 30.57 1035 10 16.0934 0 0
2:52 pm 14:52 Sunny 74 23.3 50 10 43 43 ESE 5 7 30.54 1034 10 16.0934 0 0
3:52 pm 15:52 Sunny 75 23.9 43 6.1 32 32 E 5 7 30.53 1034 10 16.0934 0 0
4:52 pm 16:52 Mostly Sunny 73 22.8 48 8.9 41 41 ESE 9 15 30.52 1034 10 16.0934 0 0
5:52 pm 17:52 Mostly Sunny 72 22.2 51 10.6 48 48 ESE 8 13 30.52 1034 10 16.0934 0 0
6:52 pm 18:52 Clear 69 20.6 52 11.1 55 55 SE 7 11 30.52 1033 10 16.0934 0 0
7:52 pm 19:52 Clear 68 20 55 12.8 63 63 ESE 5 7 30.53 1034 10 16.0934 0 0
8:52 pm 20:52 Clear 66 18.9 56 13.3 70 70 S 6 9 30.54 1034 10 16.0934 0 0
9:52 pm 21:52 Clear 64 17.8 57 13.9 78 78 SE 5 7 30.55 1034 10 16.0934 0 0
10:52 pm 22:52 Clear 63 17.2 56 13.3 78 78 SSE 3 6 30.54 1034 10 16.0934 0 0
11:52 pm 23:52 Clear 63 17.2 57 13.9 81 81 SSE 6 9 30.54 1034 10 16.0934 0 0

Powered by AerisWeather